Time;durP1;ratioP1;P1;durP2;ratioP2;P2;SDS_P1;SDS_P2;PMS_P1;PMS_P2;Temp;Humidity;BMP_temperature;BMP_pressure;BME280_temperature;BME280_humidity;BME280_pressure;Samples;Min_cycle;Max_cycle;Signal;HPM_P1;HPM_P2
2021/11/06 00:00:24;;;;;;;7.47;2.80;;;;;;;8.70;94.28;102833.25;5031447;28;20088;-75
2021/11/06 00:02:50;;;;;;;9.95;3.58;;;;;;;8.75;93.88;102829.16;5022659;28;20456;-76
2021/11/06 00:05:16;;;;;;;14.85;3.33;;;;;;;8.76;94.00;102830.06;5032191;28;20056;-76
2021/11/06 00:07:42;;;;;;;8.23;3.08;;;;;;;8.78;94.05;102828.44;5032771;28;20473;-73
2021/11/06 00:10:09;;;;;;;11.18;3.55;;;;;;;8.77;93.84;102829.25;5029370;28;20021;-75
2021/11/06 00:12:35;;;;;;;8.68;2.88;;;;;;;8.75;93.67;102821.28;5028894;28;20055;-75
2021/11/06 00:15:01;;;;;;;11.43;2.80;;;;;;;8.78;93.63;102829.31;5029382;28;20025;-76
2021/11/06 00:17:26;;;;;;;12.35;3.22;;;;;;;8.78;93.56;102824.06;5025722;28;20018;-75
2021/11/06 00:19:51;;;;;;;9.40;3.10;;;;;;;8.82;94.00;102829.50;5029045;28;20040;-75
2021/11/06 00:22:17;;;;;;;6.57;2.72;;;;;;;8.81;94.25;102825.09;5030576;28;20049;-75
2021/11/06 00:24:42;;;;;;;13.90;3.60;;;;;;;8.78;94.12;102826.69;5024259;28;20052;-76
2021/11/06 00:27:08;;;;;;;8.77;2.90;;;;;;;8.73;94.48;102830.78;5023954;28;20041;-76
2021/11/06 00:29:33;;;;;;;7.93;3.45;;;;;;;8.72;94.63;102831.63;5027511;28;20034;-75
2021/11/06 00:31:58;;;;;;;6.68;3.42;;;;;;;8.74;94.57;102827.34;5030053;28;20037;-75
2021/11/06 00:34:24;;;;;;;10.77;3.45;;;;;;;8.71;95.18;102832.44;5018484;28;20100;-75
2021/11/06 00:36:49;;;;;;;16.40;4.05;;;;;;;8.74;95.30;102832.59;5029549;28;20034;-75
2021/11/06 00:39:15;;;;;;;15.90;3.67;;;;;;;8.76;95.34;102830.06;5033435;28;20026;-76
2021/11/06 00:41:40;;;;;;;9.10;3.95;;;;;;;8.74;95.62;102831.72;5031924;28;20035;-76
2021/11/06 00:44:06;;;;;;;14.18;3.88;;;;;;;8.77;95.81;102834.50;5030689;28;20037;-76
2021/11/06 00:46:31;;;;;;;9.48;4.13;;;;;;;8.77;95.63;102829.25;5035844;28;20389;-75
2021/11/06 00:48:57;;;;;;;11.85;3.33;;;;;;;8.75;95.82;102831.78;5034747;28;20029;-76
2021/11/06 00:51:23;;;;;;;7.85;3.88;;;;;;;8.72;96.13;102834.25;5035315;28;20117;-76
2021/11/06 00:53:48;;;;;;;14.07;4.63;;;;;;;8.73;96.44;102824.66;5027115;28;20030;-76
2021/11/06 00:56:14;;;;;;;14.25;4.55;;;;;;;8.74;96.74;102827.34;5016816;28;20022;-75
2021/11/06 00:58:39;;;;;;;8.82;4.20;;;;;;;8.72;96.72;102829.00;5027106;28;20049;-75
2021/11/06 01:01:04;;;;;;;8.57;4.82;;;;;;;8.75;96.97;102820.41;5029518;28;20703;-76
2021/11/06 01:03:30;;;;;;;9.30;3.63;;;;;;;8.77;96.60;102822.25;5028790;28;20036;-75
2021/11/06 01:05:55;;;;;;;9.35;4.32;;;;;;;8.75;96.51;102817.78;5033736;28;20117;-75
2021/11/06 01:08:20;;;;;;;11.25;4.32;;;;;;;8.72;96.97;102809.69;5034471;28;20034;-74
2021/11/06 01:10:46;;;;;;;11.32;5.10;;;;;;;8.74;96.79;102816.84;5031522;28;20069;-76
2021/11/06 01:13:12;;;;;;;26.80;5.25;;;;;;;8.70;97.26;102813.97;5026194;28;20033;-76
2021/11/06 01:15:38;;;;;;;11.73;4.68;;;;;;;8.66;97.94;102812.91;5024707;28;20070;-77
2021/11/06 01:18:03;;;;;;;13.68;5.07;;;;;;;8.67;97.46;102816.41;5032477;28;20037;-76
2021/11/06 01:20:30;;;;;;;7.45;4.30;;;;;;;8.70;97.68;102809.63;5033679;28;20053;-76
2021/11/06 01:22:56;;;;;;;9.35;4.82;;;;;;;8.70;97.53;102811.34;5034727;28;20339;-76
2021/11/06 01:25:21;;;;;;;10.75;5.18;;;;;;;8.67;97.63;102804.22;5033297;28;20060;-76
2021/11/06 01:27:47;;;;;;;13.20;4.50;;;;;;;8.64;97.82;102814.53;5027660;28;20045;-76
2021/11/06 01:30:13;;;;;;;11.07;5.20;;;;;;;8.68;98.28;102805.09;5033340;28;20171;-76
2021/11/06 01:32:44;;;;;;;16.45;5.03;;;;;;;8.64;98.13;102814.53;5023274;28;20068;-76
2021/11/06 01:35:10;;;;;;;10.73;5.30;;;;;;;8.73;97.82;102815.03;5028436;28;20022;-77
2021/11/06 01:37:36;;;;;;;10.48;5.15;;;;;;;8.68;98.07;102811.28;5032660;28;20028;-77
2021/11/06 01:40:05;;;;;;;10.27;5.20;;;;;;;8.64;98.13;102814.53;5026003;28;20389;-77
2021/11/06 01:42:31;;;;;;;11.40;5.55;;;;;;;8.64;98.28;102811.00;5028645;28;20037;-75
2021/11/06 01:44:57;;;;;;;14.20;5.72;;;;;;;8.63;98.42;102807.47;5029201;28;20079;-76
2021/11/06 01:47:22;;;;;;;13.48;5.78;;;;;;;8.57;99.18;102804.50;5035496;28;20025;-77
2021/11/06 01:49:47;;;;;;;8.70;5.20;;;;;;;8.58;99.11;102806.31;5028624;28;20025;-76
2021/11/06 01:52:13;;;;;;;15.65;5.40;;;;;;;8.58;98.84;102801.94;5022043;28;20037;-77
2021/11/06 01:54:38;;;;;;;13.00;5.38;;;;;;;8.56;98.91;102805.31;5032374;28;20104;-77
2021/11/06 01:57:04;;;;;;;8.55;4.68;;;;;;;8.53;99.26;102799.91;5022046;28;20020;-76
2021/11/06 01:59:30;;;;;;;13.73;5.13;;;;;;;8.57;99.05;102799.25;5022596;28;20470;-77
2021/11/06 02:01:57;;;;;;;11.82;5.22;;;;;;;8.56;99.12;102790.50;5023027;28;20041;-77
2021/11/06 02:04:23;;;;;;;12.38;4.95;;;;;;;8.55;98.87;102800.91;5025028;28;20029;-75
2021/11/06 02:06:48;;;;;;;13.82;5.30;;;;;;;8.55;98.98;102801.78;5029395;28;20032;-75
2021/11/06 02:09:14;;;;;;;11.85;5.63;;;;;;;8.59;98.95;102800.25;5032739;28;20134;-77
2021/11/06 02:11:40;;;;;;;18.10;5.40;;;;;;;8.58;99.27;102798.44;5022913;28;20030;-74
2021/11/06 02:14:05;;;;;;;11.40;6.05;;;;;;;8.55;99.18;102795.66;5033073;28;20029;-76
2021/11/06 02:16:31;;;;;;;14.38;6.55;;;;;;;8.51;99.98;102796.28;5034152;28;20079;-76
2021/11/06 02:18:57;;;;;;;10.35;5.75;;;;;;;8.58;99.64;102793.19;5031086;28;20476;-76
2021/11/06 02:21:22;;;;;;;14.77;7.00;;;;;;;8.56;99.91;102793.13;5025410;28;20061;-75
2021/11/06 02:23:49;;;;;;;14.13;6.78;;;;;;;8.57;100.00;102794.00;5026814;28;20044;-76
2021/11/06 02:26:18;;;;;;;17.08;7.38;;;;;;;8.56;100.00;102795.72;5033465;28;20040;-76
2021/11/06 02:28:46;;;;;;;16.05;6.85;;;;;;;8.57;100.00;102796.63;5025535;28;20072;-75
2021/11/06 02:31:12;;;;;;;12.65;6.15;;;;;;;8.56;100.00;102795.72;5031319;28;20037;-75
2021/11/06 02:33:38;;;;;;;17.20;7.05;;;;;;;8.59;100.00;102789.75;5019917;28;20037;-75
2021/11/06 02:36:03;;;;;;;13.35;7.15;;;;;;;8.60;100.00;102799.44;5030317;28;20067;-76
2021/11/06 02:38:28;;;;;;;15.90;7.38;;;;;;;8.57;100.00;102799.25;5043583;28;20049;-76
2021/11/06 02:40:54;;;;;;;14.98;6.70;;;;;;;8.55;100.00;102799.16;5028716;28;20470;-77
2021/11/06 02:43:20;;;;;;;19.48;7.60;;;;;;;8.61;100.00;102798.59;5021148;28;20060;-75
2021/11/06 02:45:45;;;;;;;16.20;8.25;;;;;;;8.65;100.00;102803.19;5028690;28;20064;-75
2021/11/06 02:48:11;;;;;;;18.27;7.88;;;;;;;8.60;100.00;102792.47;5027459;28;20465;-75
2021/11/06 02:50:36;;;;;;;15.80;7.65;;;;;;;8.57;100.00;102797.56;5033434;28;20432;-76
2021/11/06 02:53:02;;;;;;;20.08;7.65;;;;;;;8.58;100.00;102795.81;5032882;28;20033;-77
2021/11/06 02:55:28;;;;;;;15.73;8.23;;;;;;;8.66;100.00;102791.91;5025203;28;20065;-75
2021/11/06 02:57:53;;;;;;;12.93;7.38;;;;;;;8.69;100.00;102792.06;5022708;28;20086;-76
2021/11/06 03:00:19;;;;;;;18.65;8.85;;;;;;;8.64;100.00;102792.63;5030860;28;20049;-75
2021/11/06 03:02:45;;;;;;;17.83;8.70;;;;;;;8.63;100.00;102796.97;5027251;28;20362;-77
2021/11/06 03:05:13;;;;;;;20.35;8.45;;;;;;;8.63;100.00;102796.97;5032273;28;20084;-77
2021/11/06 03:07:38;;;;;;;19.50;8.82;;;;;;;8.62;100.00;102795.16;5026513;28;20466;-77
2021/11/06 03:10:06;;;;;;;18.08;8.50;;;;;;;8.61;100.00;102798.59;5028417;28;20128;-76
2021/11/06 03:12:32;;;;;;;19.13;9.10;;;;;;;8.62;100.00;102803.03;5032880;28;20113;-76
2021/11/06 03:14:57;;;;;;;19.02;8.80;;;;;;;8.66;100.00;102801.50;5025737;28;20096;-75
2021/11/06 03:17:23;;;;;;;18.40;10.05;;;;;;;8.60;100.00;102802.06;5025163;28;20091;-76
2021/11/06 03:19:48;;;;;;;22.17;10.25;;;;;;;8.60;100.00;102791.56;5029738;28;20021;-74
2021/11/06 03:22:14;;;;;;;22.00;10.25;;;;;;;8.61;100.00;102798.59;5030104;28;20029;-76
2021/11/06 03:24:39;;;;;;;26.20;10.48;;;;;;;8.61;100.00;102790.72;5026596;28;20374;-76
2021/11/06 03:27:05;;;;;;;20.35;10.70;;;;;;;8.56;100.00;102785.25;5024220;28;20593;-76
2021/11/06 03:29:32;;;;;;;16.38;9.75;;;;;;;8.59;100.00;102789.75;5031394;28;20431;-76
2021/11/06 03:31:57;;;;;;;17.95;10.25;;;;;;;8.58;100.00;102783.59;5029900;28;20033;-76
2021/11/06 03:34:23;;;;;;;20.13;10.63;;;;;;;8.60;100.00;102787.22;5024233;28;20453;-76
2021/11/06 03:36:49;;;;;;;23.35;10.35;;;;;;;8.61;100.00;102782.84;5029595;28;20029;-74
2021/11/06 03:39:15;;;;;;;23.92;11.43;;;;;;;8.64;100.00;102785.69;5031064;28;20436;-75
2021/11/06 03:41:40;;;;;;;25.73;12.07;;;;;;;8.64;100.00;102783.06;5022939;28;20029;-76
2021/11/06 03:44:06;;;;;;;21.77;11.23;;;;;;;8.63;100.00;102789.13;5028748;28;20125;-76
2021/11/06 03:46:32;;;;;;;20.83;11.63;;;;;;;8.67;100.00;102783.22;5028731;28;20041;-75
2021/11/06 03:48:58;;;;;;;25.70;10.95;;;;;;;8.69;100.00;102783.28;5021184;28;20026;-76
2021/11/06 03:51:23;;;;;;;20.17;11.20;;;;;;;8.68;100.00;102779.78;5030185;28;20030;-76
2021/11/06 03:53:49;;;;;;;21.15;12.43;;;;;;;8.66;100.00;102776.16;5030079;28;20477;-75
2021/11/06 03:56:14;;;;;;;26.65;13.20;;;;;;;8.71;100.00;102777.31;5031332;28;20155;-75
2021/11/06 03:58:39;;;;;;;23.95;12.90;;;;;;;8.72;100.00;102773.88;5028302;28;20040;-76
2021/11/06 04:01:05;;;;;;;24.95;12.93;;;;;;;8.71;100.00;102772.06;5022689;28;20022;-76
2021/11/06 04:03:31;;;;;;;22.00;12.10;;;;;;;8.71;100.00;102772.06;5030369;28;20029;-76
2021/11/06 04:05:56;;;;;;;28.75;12.95;;;;;;;8.75;100.00;102775.78;5029927;28;20036;-76
2021/11/06 04:08:21;;;;;;;22.65;12.75;;;;;;;8.75;100.00;102766.16;5031468;28;20037;-75
2021/11/06 04:10:47;;;;;;;25.77;12.93;;;;;;;8.72;100.00;102763.38;5031542;28;20026;-76
2021/11/06 04:13:13;;;;;;;26.27;13.50;;;;;;;8.76;100.00;102770.59;5028429;28;20026;-76
2021/11/06 04:15:39;;;;;;;24.40;13.48;;;;;;;8.77;100.00;102767.13;5034070;28;20436;-76
2021/11/06 04:18:05;;;;;;;26.20;13.90;;;;;;;8.80;100.00;102774.28;5032055;28;20514;-76
2021/11/06 04:20:31;;;;;;;31.60;15.18;;;;;;;8.78;100.00;102771.56;5029994;28;20029;-77
2021/11/06 04:22:56;;;;;;;26.63;13.85;;;;;;;8.80;100.00;102769.03;5032334;28;20045;-76
2021/11/06 04:25:21;;;;;;;22.17;12.90;;;;;;;8.86;100.00;102774.63;5028238;28;20072;-76
2021/11/06 04:27:47;;;;;;;28.48;13.32;;;;;;;8.86;100.00;102773.75;5036158;28;20389;-75
2021/11/06 04:30:13;;;;;;;25.15;13.57;;;;;;;8.89;100.00;102776.53;5028325;28;20044;-76
2021/11/06 04:32:39;;;;;;;29.40;13.73;;;;;;;8.86;100.00;102779.88;5031448;28;20068;-76
2021/11/06 04:35:05;;;;;;;25.75;14.10;;;;;;;8.95;100.00;102779.47;5030795;28;20029;-76
2021/11/06 04:37:30;;;;;;;21.73;12.52;;;;;;;8.98;100.00;102781.34;5025782;28;20030;-77
2021/11/06 04:39:55;;;;;;;31.63;15.07;;;;;;;8.96;100.00;102778.66;5026836;28;20030;-77
2021/11/06 04:42:21;;;;;;;31.83;14.48;;;;;;;8.93;100.00;102776.75;5026407;28;20128;-76
2021/11/06 04:44:47;;;;;;;26.70;13.20;;;;;;;8.99;100.00;102778.81;5034178;28;20033;-78
2021/11/06 04:47:12;;;;;;;33.38;14.82;;;;;;;9.03;100.00;102772.00;5026750;28;20058;-76
2021/11/06 04:49:37;;;;;;;27.50;14.20;;;;;;;9.05;100.00;102766.03;5020891;28;20029;-76
2021/11/06 04:52:04;;;;;;;24.23;14.07;;;;;;;9.03;100.00;102767.66;5022312;28;20045;-76
2021/11/06 04:54:30;;;;;;;24.88;13.43;;;;;;;9.02;100.00;102764.94;5033295;28;20021;-75
2021/11/06 04:56:55;;;;;;;31.02;14.88;;;;;;;9.04;100.00;102758.97;5029416;28;20164;-77
2021/11/06 04:59:20;;;;;;;27.55;14.57;;;;;;;9.01;100.00;102757.91;5026226;28;20029;-77
2021/11/06 05:01:46;;;;;;;30.17;13.50;;;;;;;9.08;100.00;102755.69;5027227;28;20029;-74
2021/11/06 05:04:11;;;;;;;28.42;14.20;;;;;;;9.11;100.00;102760.19;5033246;28;20067;-75
2021/11/06 05:06:37;;;;;;;31.33;13.95;;;;;;;9.09;100.00;102752.25;5031616;28;20025;-75
2021/11/06 05:09:02;;;;;;;25.27;13.73;;;;;;;9.07;100.00;102752.97;5026340;28;20033;-77
2021/11/06 05:11:28;;;;;;;23.10;13.02;;;;;;;9.06;100.00;102745.91;5028912;28;20059;-74
2021/11/06 05:13:53;;;;;;;27.00;13.73;;;;;;;9.09;100.00;102754.88;5029275;28;20033;-75
2021/11/06 05:16:18;;;;;;;22.42;13.75;;;;;;;9.11;100.00;102750.63;5031512;28;20099;-75
2021/11/06 05:18:44;;;;;;;35.65;14.02;;;;;;;9.09;100.00;102757.50;5029786;28;20401;-75
2021/11/06 05:21:10;;;;;;;30.65;13.93;;;;;;;9.04;100.00;102758.97;5025395;28;20053;-76
2021/11/06 05:23:35;;;;;;;27.20;13.40;;;;;;;9.05;100.00;102762.50;5027296;28;20029;-75
2021/11/06 05:26:00;;;;;;;30.33;14.35;;;;;;;9.08;100.00;102760.94;5024811;28;20029;-77
2021/11/06 05:28:26;;;;;;;28.02;14.13;;;;;;;9.06;100.00;102765.22;5031886;28;20028;-75
2021/11/06 05:30:52;;;;;;;22.85;13.30;;;;;;;9.04;100.00;102764.22;5018531;28;20105;-77
2021/11/06 05:33:17;;;;;;;23.83;12.18;;;;;;;9.05;100.00;102770.38;5026955;28;20029;-76
2021/11/06 05:35:42;;;;;;;24.60;13.98;;;;;;;9.04;100.00;102766.84;5030398;28;20032;-74
2021/11/06 05:38:08;;;;;;;28.48;14.10;;;;;;;9.05;100.00;102765.13;5035455;28;20017;-76
2021/11/06 05:40:34;;;;;;;28.33;14.30;;;;;;;9.07;100.00;102767.00;5027078;28;20030;-77
2021/11/06 05:42:59;;;;;;;27.05;13.82;;;;;;;9.04;100.00;102765.94;5029026;28;20473;-76
2021/11/06 05:45:25;;;;;;;24.95;14.18;;;;;;;9.00;100.00;102767.50;5030519;28;20427;-76
2021/11/06 05:47:52;;;;;;;26.40;13.48;;;;;;;9.00;100.00;102757.00;5034253;28;20030;-74
2021/11/06 05:50:17;;;;;;;25.77;14.52;;;;;;;8.98;100.00;102752.47;5030873;28;20026;-74
2021/11/06 05:52:43;;;;;;;26.10;14.60;;;;;;;9.01;100.00;102753.56;5031738;28;20102;-74
2021/11/06 05:55:13;;;;;;;23.40;13.90;;;;;;;8.99;100.00;102755.19;5038125;28;20033;-76
2021/11/06 05:57:38;;;;;;;22.23;12.90;;;;;;;8.99;100.00;102757.81;5029442;28;20033;-75
2021/11/06 06:00:08;;;;;;;26.98;13.27;;;;;;;9.01;100.00;102756.19;5028766;28;20097;-76
2021/11/06 06:02:34;;;;;;;26.15;13.32;;;;;;;8.99;100.00;102754.28;5033869;28;20025;-76
2021/11/06 06:04:59;;;;;;;28.23;14.15;;;;;;;9.02;100.00;102752.75;5033433;28;20040;-76
2021/11/06 06:07:24;;;;;;;23.77;14.45;;;;;;;9.00;100.00;102751.75;5031327;28;20062;-76
2021/11/06 06:09:50;;;;;;;25.95;14.07;;;;;;;9.02;100.00;102754.44;5034684;28;20420;-76
2021/11/06 06:12:16;;;;;;;24.52;13.85;;;;;;;9.00;100.00;102746.50;5034345;28;20083;-76
2021/11/06 06:14:41;;;;;;;27.40;13.73;;;;;;;9.05;100.00;102749.38;5030351;28;20029;-76
2021/11/06 06:17:06;;;;;;;25.67;13.48;;;;;;;9.00;100.00;102746.50;5031534;28;20022;-75
2021/11/06 06:19:32;;;;;;;27.58;14.32;;;;;;;9.01;100.00;102748.31;5030717;28;20025;-77
2021/11/06 06:21:57;;;;;;;28.77;14.10;;;;;;;8.99;100.00;102746.41;5033499;28;20033;-75
2021/11/06 06:24:22;;;;;;;28.38;13.93;;;;;;;9.01;100.00;102744.78;5021560;28;20084;-76
2021/11/06 06:26:48;;;;;;;23.98;12.93;;;;;;;9.02;100.00;102744.88;5028164;28;20032;-75
2021/11/06 06:29:13;;;;;;;28.17;13.55;;;;;;;8.97;100.00;102746.34;5028794;28;20048;-77
2021/11/06 06:31:38;;;;;;;30.77;14.50;;;;;;;9.03;100.00;102749.28;5028592;28;20378;-77
2021/11/06 06:34:04;;;;;;;28.70;12.70;;;;;;;9.03;100.00;102741.41;5034804;28;20027;-77
2021/11/06 06:36:29;;;;;;;27.13;14.48;;;;;;;9.01;100.00;102743.06;5032954;28;20030;-77
2021/11/06 06:38:54;;;;;;;24.95;13.20;;;;;;;9.01;100.00;102747.41;5029459;28;20112;-77
2021/11/06 06:41:20;;;;;;;21.58;12.70;;;;;;;9.05;100.00;102752.00;5026460;28;20033;-76
2021/11/06 06:43:45;;;;;;;22.08;13.63;;;;;;;9.04;100.00;102753.72;5024295;28;20033;-75
2021/11/06 06:46:11;;;;;;;24.00;13.23;;;;;;;8.99;100.00;102755.19;5032626;28;20470;-76
2021/11/06 06:48:36;;;;;;;25.35;14.13;;;;;;;9.03;100.00;102758.88;5028008;28;20053;-76
2021/11/06 06:51:01;;;;;;;29.17;15.15;;;;;;;9.03;100.00;102751.91;5025672;28;20048;-75
2021/11/06 06:53:27;;;;;;;26.02;13.57;;;;;;;9.00;100.00;102751.75;5031558;28;20033;-74
2021/11/06 06:55:52;;;;;;;23.70;15.27;;;;;;;9.01;100.00;102747.41;5030295;28;20022;-78
2021/11/06 06:58:18;;;;;;;25.83;14.00;;;;;;;8.99;100.00;102744.69;5029422;28;20176;-77
2021/11/06 07:00:43;;;;;;;26.30;13.70;;;;;;;9.00;100.00;102748.22;5034479;28;20044;-76
2021/11/06 07:03:09;;;;;;;28.92;14.50;;;;;;;8.96;100.00;102752.41;5026735;28;20061;-75
2021/11/06 07:05:34;;;;;;;21.65;13.30;;;;;;;9.04;100.00;102742.31;5025283;28;21586;-76
2021/11/06 07:08:00;;;;;;;27.25;12.57;;;;;;;9.06;100.00;102752.09;5031979;28;20110;-76
2021/11/06 07:10:25;;;;;;;24.08;13.68;;;;;;;9.04;100.00;102750.19;5027557;28;20033;-71
2021/11/06 07:12:51;;;;;;;31.35;13.02;;;;;;;9.02;100.00;102755.38;5030397;28;20432;-76
2021/11/06 07:15:17;;;;;;;27.45;13.63;;;;;;;9.02;100.00;102760.63;5032559;28;20041;-75
2021/11/06 07:17:43;;;;;;;24.90;13.18;;;;;;;9.14;100.00;102762.09;5037397;28;20029;-73
2021/11/06 07:20:09;;;;;;;23.58;12.77;;;;;;;9.10;100.00;102767.19;5028926;28;20068;-72
2021/11/06 07:22:35;;;;;;;18.73;12.15;;;;;;;9.14;100.00;102760.34;5025752;28;20532;-77
2021/11/06 07:25:02;;;;;;;23.90;12.05;;;;;;;9.13;100.00;102757.66;5029302;28;20044;-77
2021/11/06 07:27:27;;;;;;;20.48;12.48;;;;;;;9.13;100.00;102765.53;5031794;28;20028;-76
2021/11/06 07:29:53;;;;;;;21.88;11.60;;;;;;;9.18;100.00;102756.19;5027833;28;20029;-77
2021/11/06 07:32:18;;;;;;;17.60;11.88;;;;;;;9.20;100.00;102763.31;5030858;28;20029;-75
2021/11/06 07:34:44;;;;;;;33.17;12.18;;;;;;;9.19;100.00;102758.00;5029947;28;20030;-75
2021/11/06 07:37:10;;;;;;;21.88;12.07;;;;;;;9.22;100.00;102760.78;5029017;28;20021;-75
2021/11/06 07:39:35;;;;;;;21.38;11.73;;;;;;;9.25;100.00;102758.28;5035571;28;20025;-76
2021/11/06 07:42:00;;;;;;;19.33;11.23;;;;;;;9.26;100.00;102752.22;5030600;28;20023;-74
2021/11/06 07:44:26;;;;;;;22.42;11.32;;;;;;;9.30;100.00;102743.69;5030550;28;20029;-75
2021/11/06 07:46:51;;;;;;;23.02;10.68;;;;;;;9.32;100.00;102754.28;5024442;28;20092;-72
2021/11/06 07:49:17;;;;;;;22.90;11.45;;;;;;;9.32;100.00;102749.94;5015463;28;20040;-74
2021/11/06 07:51:42;;;;;;;21.08;11.00;;;;;;;9.38;100.00;102746.72;5029092;28;20032;-75
2021/11/06 07:54:08;;;;;;;17.08;11.32;;;;;;;9.35;100.00;102747.47;5031808;28;21422;-75
2021/11/06 07:56:36;;;;;;;20.40;10.13;;;;;;;9.45;100.00;102751.47;5028450;28;20021;-75
2021/11/06 07:59:01;;;;;;;16.40;10.00;;;;;;;9.40;100.00;102748.59;5025728;28;20052;-76
2021/11/06 08:01:29;;;;;;;14.77;10.10;;;;;;;9.35;100.00;102752.72;5031974;28;20029;-76
2021/11/06 08:03:55;;;;;;;16.05;10.68;;;;;;;9.36;100.00;102741.41;5026221;28;20049;-76
2021/11/06 08:06:20;;;;;;;18.73;9.60;;;;;;;9.35;100.00;102743.94;5024829;28;20059;-76
2021/11/06 08:08:45;;;;;;;13.57;8.95;;;;;;;9.37;100.00;102743.22;5029531;28;20029;-75
2021/11/06 08:11:11;;;;;;;17.73;9.60;;;;;;;9.36;100.00;102744.03;5030592;28;20400;-74
2021/11/06 08:13:36;;;;;;;19.80;9.20;;;;;;;9.38;100.00;102741.47;5031835;28;20539;-76
2021/11/06 08:16:01;;;;;;;15.60;9.27;;;;;;;9.37;100.00;102743.22;5028018;28;20021;-74
2021/11/06 08:18:29;;;;;;;12.07;8.35;;;;;;;9.36;100.00;102746.66;5028538;28;20033;-75
2021/11/06 08:20:54;;;;;;;16.70;8.55;;;;;;;9.42;100.00;102746.06;5019834;28;20025;-76
2021/11/06 08:23:20;;;;;;;12.15;7.57;;;;;;;9.44;100.00;102744.41;5030136;28;20057;-76
2021/11/06 08:25:47;;;;;;;14.05;7.80;;;;;;;9.44;100.00;102750.56;5028262;28;20478;-75
2021/11/06 08:28:13;;;;;;;16.92;8.13;;;;;;;9.49;99.90;102753.44;5031746;28;20038;-76
2021/11/06 08:30:39;;;;;;;19.98;7.57;;;;;;;9.53;100.00;102749.25;5029992;28;20033;-77
2021/11/06 08:33:04;;;;;;;20.83;8.27;;;;;;;9.48;99.66;102740.22;5032670;28;20030;-77
2021/11/06 08:35:30;;;;;;;13.20;7.43;;;;;;;9.52;99.70;102742.19;5030484;28;20108;-77
2021/11/06 08:37:58;;;;;;;10.85;6.80;;;;;;;9.52;99.15;102742.19;5032336;28;20059;-77
2021/11/06 08:40:25;;;;;;;12.25;6.85;;;;;;;9.56;99.22;102744.13;5028650;28;20397;-77
2021/11/06 08:42:51;;;;;;;15.75;7.78;;;;;;;9.62;99.06;102745.34;5030622;28;20024;-77
2021/11/06 08:45:17;;;;;;;13.00;6.80;;;;;;;9.73;98.55;102748.53;5025248;28;20415;-75
2021/11/06 08:47:43;;;;;;;12.90;6.32;;;;;;;9.79;98.28;102743.59;5027520;28;20363;-75
2021/11/06 08:50:18;;;;;;;12.32;6.07;;;;;;;9.91;97.76;102752.91;5032297;28;20385;-75
2021/11/06 08:52:44;;;;;;;9.85;6.40;;;;;;;9.95;97.39;102749.59;5023815;28;20029;-76
2021/11/06 08:55:10;;;;;;;12.20;7.20;;;;;;;9.93;96.94;102746.03;5022910;28;20065;-76
2021/11/06 08:57:38;;;;;;;14.90;5.70;;;;;;;9.99;96.90;102748.03;5026810;28;20021;-75
2021/11/06 09:00:09;;;;;;;10.70;5.30;;;;;;;10.03;97.11;102747.38;5031116;28;20037;-75
2021/11/06 09:02:36;;;;;;;10.80;5.82;;;;;;;10.04;97.00;102734.28;5028050;28;20080;-77
2021/11/06 09:05:04;;;;;;;9.93;5.40;;;;;;;10.08;96.52;102732.72;5035161;28;20048;-75
2021/11/06 09:07:32;;;;;;;16.42;6.20;;;;;;;10.13;96.45;102733.81;5032255;28;20032;-76
2021/11/06 09:09:59;;;;;;;15.73;5.47;;;;;;;10.15;96.78;102732.19;5024742;28;20034;-78
2021/11/06 09:12:25;;;;;;;14.80;6.00;;;;;;;10.08;97.15;102733.63;5033250;28;20080;-77
2021/11/06 09:14:51;;;;;;;12.23;5.80;;;;;;;10.04;96.93;102721.13;5025165;28;20025;-76
2021/11/06 09:17:17;;;;;;;12.02;5.80;;;;;;;10.07;96.97;102723.91;5033671;28;20104;-76
2021/11/06 09:19:42;;;;;;;11.52;5.53;;;;;;;10.08;97.24;102720.47;5029550;28;20100;-76
2021/11/06 09:22:08;;;;;;;18.60;5.88;;;;;;;10.08;97.26;102719.56;5030994;28;20063;-75
2021/11/06 09:24:33;;;;;;;13.60;5.50;;;;;;;10.13;97.04;102732.13;5027956;28;20095;-76
2021/11/06 09:26:58;;;;;;;11.73;5.20;;;;;;;10.16;96.71;102717.28;5029320;28;20022;-76
2021/11/06 09:29:24;;;;;;;9.82;5.10;;;;;;;10.13;96.65;102718.03;5025281;28;20464;-76
2021/11/06 09:31:49;;;;;;;12.77;5.32;;;;;;;10.25;96.79;102717.75;5019811;28;20056;-77
2021/11/06 09:34:14;;;;;;;10.77;5.28;;;;;;;10.30;96.23;102721.50;5027089;28;20021;-76
2021/11/06 09:36:40;;;;;;;10.75;5.57;;;;;;;10.35;95.86;102713.84;5034065;28;20378;-76
2021/11/06 09:39:08;;;;;;;8.27;4.68;;;;;;;10.33;94.96;102715.50;5036162;28;20083;-75
2021/11/06 09:41:34;;;;;;;11.10;5.25;;;;;;;10.38;94.64;102712.28;5032631;28;20114;-76
2021/11/06 09:43:59;;;;;;;13.13;4.88;;;;;;;10.39;94.32;102710.53;5035167;28;20025;-77
2021/11/06 09:46:25;;;;;;;6.70;4.55;;;;;;;10.39;94.03;102716.72;5035324;28;20377;-77
2021/11/06 09:48:51;;;;;;;14.13;5.32;;;;;;;10.36;94.02;102713.91;5030485;28;20032;-77
2021/11/06 09:51:18;;;;;;;10.32;5.07;;;;;;;10.39;94.30;102711.47;5034704;28;20041;-76
2021/11/06 09:53:47;;;;;;;10.93;4.95;;;;;;;10.35;94.11;102709.50;5036250;28;20033;-76
2021/11/06 09:56:17;;;;;;;8.13;4.47;;;;;;;10.40;94.00;102718.50;5032469;28;20021;-76
2021/11/06 09:58:42;;;;;;;7.88;4.50;;;;;;;10.42;93.68;102722.13;5019086;28;20025;-76
2021/11/06 10:01:09;;;;;;;9.05;5.32;;;;;;;10.32;93.88;102719.81;5029133;28;20044;-78
2021/11/06 10:03:36;;;;;;;7.45;4.75;;;;;;;10.33;93.83;102711.13;5028351;28;20531;-78
2021/11/06 10:06:04;;;;;;;8.95;5.43;;;;;;;10.28;93.78;102712.63;5029272;28;20030;-77
2021/11/06 10:08:35;;;;;;;8.38;5.60;;;;;;;10.21;94.27;102716.69;5033068;28;20040;-77
2021/11/06 10:11:07;;;;;;;11.30;5.15;;;;;;;10.22;94.01;102712.34;5036129;28;20025;-76
2021/11/06 10:13:33;;;;;;;10.10;5.90;;;;;;;10.19;94.36;102706.94;5029848;28;20087;-75
2021/11/06 10:15:59;;;;;;;9.93;5.10;;;;;;;10.19;94.39;102720.09;5031809;28;20113;-77
2021/11/06 10:18:28;;;;;;;10.73;5.25;;;;;;;10.06;94.66;102703.69;5029685;28;20485;-78
2021/11/06 10:21:09;;;;;;;8.73;5.10;;;;;;;10.04;95.13;102721.13;5028345;28;20052;-77
2021/11/06 10:23:41;;;;;;;13.57;5.28;;;;;;;10.01;95.31;102710.47;5023652;28;20474;-77
2021/11/06 10:26:20;;;;;;;6.75;5.13;;;;;;;10.04;94.77;102708.00;5031124;28;20033;-76
2021/11/06 10:29:06;;;;;;;11.52;5.40;;;;;;;10.07;95.10;102723.91;5032047;28;20033;-75
2021/11/06 10:31:53;;;;;;;9.27;4.95;;;;;;;10.16;94.47;102709.41;5034124;28;20390;-78
2021/11/06 10:34:24;;;;;;;9.80;5.85;;;;;;;10.10;94.74;102707.38;5022604;28;20046;-76
2021/11/06 10:37:00;;;;;;;12.18;5.72;;;;;;;10.05;94.46;102703.63;5031217;28;20370;-78
2021/11/06 10:39:26;;;;;;;14.70;5.90;;;;;;;10.12;94.48;102698.75;5028449;28;20060;-76
2021/11/06 10:41:52;;;;;;;11.23;4.82;;;;;;;10.16;94.85;102701.50;5031503;28;20082;-79
2021/11/06 10:44:20;;;;;;;9.18;5.13;;;;;;;10.20;94.13;102703.47;5019408;28;20424;-75
2021/11/06 10:46:53;;;;;;;12.63;5.60;;;;;;;10.19;94.52;102701.69;5025282;28;20030;-77
2021/11/06 10:49:37;;;;;;;9.07;5.55;;;;;;;10.26;94.11;102694.13;5027980;28;20030;-77
2021/11/06 10:52:11;;;;;;;10.77;5.28;;;;;;;10.35;93.80;102688.47;5022173;28;20477;-76
2021/11/06 10:54:55;;;;;;;;;;;;;;;10.42;93.72;102687.91;5026528;28;20083;-75
2021/11/06 10:57:24;;;;;;;6.35;4.65;;;;;;;10.52;92.88;102683.97;5025898;28;19913;-78
2021/11/06 11:00:11;;;;;;;10.00;5.30;;;;;;;10.69;92.74;102679.50;5023401;28;20030;-76
2021/11/06 11:02:37;;;;;;;14.90;4.70;;;;;;;10.80;91.67;102678.22;5024107;28;20025;-77
2021/11/06 11:05:04;;;;;;;9.95;4.95;;;;;;;11.00;91.79;102667.72;5026669;28;20025;-78
2021/11/06 11:07:30;;;;;;;9.57;4.93;;;;;;;11.25;90.97;102674.94;5033712;28;20029;-77
2021/11/06 11:09:55;;;;;;;8.00;5.05;;;;;;;11.28;89.75;102656.59;5028372;28;20426;-78
2021/11/06 11:12:21;;;;;;;11.75;5.05;;;;;;;11.46;89.81;102672.31;5024381;28;20053;-79